sensor_id;sensor_type;location;lat;lon;timestamp;pressure;altitude;pressure_sealevel;temperature;humidity
10480;BME280;12789;42.610;23.040;2022-07-23T00:00:02;93896.06;;;18.13;91.31
10480;BME280;12789;42.610;23.040;2022-07-23T00:02:29;93912.31;;;18.23;91.89
10480;BME280;12789;42.610;23.040;2022-07-23T00:04:58;93921.19;;;18.22;92.07
10480;BME280;12789;42.610;23.040;2022-07-23T00:07:25;93933.84;;;18.04;92.96
10480;BME280;12789;42.610;23.040;2022-07-23T00:09:58;93916.16;;;18.06;91.96
10480;BME280;12789;42.610;23.040;2022-07-23T00:12:36;93922.56;;;18.18;92.26
10480;BME280;12789;42.610;23.040;2022-07-23T00:15:08;93930.34;;;18.11;92.89
10480;BME280;12789;42.610;23.040;2022-07-23T00:17:40;93934.50;;;18.06;93.04
10480;BME280;12789;42.610;23.040;2022-07-23T00:20:11;93928.06;;;17.94;93.97
10480;BME280;12789;42.610;23.040;2022-07-23T00:22:46;93928.44;;;17.91;94.84
10480;BME280;12789;42.610;23.040;2022-07-23T00:25:17;93934.94;;;17.95;95.12
10480;BME280;12789;42.610;23.040;2022-07-23T00:27:48;93919.19;;;17.81;94.92
10480;BME280;12789;42.610;23.040;2022-07-23T00:30:16;93928.81;;;17.88;94.99
10480;BME280;12789;42.610;23.040;2022-07-23T00:32:48;93929.44;;;17.90;95.05
10480;BME280;12789;42.610;23.040;2022-07-23T00:35:23;93928.53;;;17.83;95.18
10480;BME280;12789;42.610;23.040;2022-07-23T00:37:50;93920.13;;;17.73;96.23
10480;BME280;12789;42.610;23.040;2022-07-23T00:40:18;93920.19;;;17.65;95.72
10480;BME280;12789;42.610;23.040;2022-07-23T00:42:46;93925.97;;;17.61;96.29
10480;BME280;12789;42.610;23.040;2022-07-23T00:45:19;93903.75;;;17.57;96.40
10480;BME280;12789;42.610;23.040;2022-07-23T00:47:47;93918.22;;;17.67;96.64
10480;BME280;12789;42.610;23.040;2022-07-23T00:50:15;93923.88;;;17.56;97.04
10480;BME280;12789;42.610;23.040;2022-07-23T00:52:44;93930.84;;;17.49;97.28
10480;BME280;12789;42.610;23.040;2022-07-23T00:55:17;93927.94;;;17.44;97.63
10480;BME280;12789;42.610;23.040;2022-07-23T00:58:07;93937.78;;;17.42;98.90
10480;BME280;12789;42.610;23.040;2022-07-23T01:00:54;93943.03;;;17.42;99.48
10480;BME280;12789;42.610;23.040;2022-07-23T01:03:27;93936.16;;;17.41;99.79
10480;BME280;12789;42.610;23.040;2022-07-23T01:06:02;93922.00;;;17.28;100.00
10480;BME280;12789;42.610;23.040;2022-07-23T01:08:32;93899.84;;;17.16;100.00
10480;BME280;12789;42.610;23.040;2022-07-23T01:11:02;93915.28;;;17.25;99.05
10480;BME280;12789;42.610;23.040;2022-07-23T01:13:31;93923.41;;;17.38;100.00
10480;BME280;12789;42.610;23.040;2022-07-23T01:16:00;93914.00;;;17.21;100.00
10480;BME280;12789;42.610;23.040;2022-07-23T01:18:33;93931.66;;;17.27;100.00
10480;BME280;12789;42.610;23.040;2022-07-23T01:21:08;93931.47;;;17.29;100.00
10480;BME280;12789;42.610;23.040;2022-07-23T01:27:42;93914.84;;;17.22;100.00
10480;BME280;12789;42.610;23.040;2022-07-23T01:30:10;93917.63;;;17.20;100.00
10480;BME280;12789;42.610;23.040;2022-07-23T01:32:38;93906.53;;;16.96;100.00
10480;BME280;12789;42.610;23.040;2022-07-23T01:35:06;93917.94;;;17.03;100.00
10480;BME280;12789;42.610;23.040;2022-07-23T01:37:37;93911.34;;;17.07;100.00
10480;BME280;12789;42.610;23.040;2022-07-23T01:40:10;93916.66;;;16.99;100.00
10480;BME280;12789;42.610;23.040;2022-07-23T01:42:38;93914.56;;;16.94;100.00
10480;BME280;12789;42.610;23.040;2022-07-23T01:45:06;93912.66;;;16.88;100.00
10480;BME280;12789;42.610;23.040;2022-07-23T01:47:33;93914.88;;;16.99;100.00
10480;BME280;12789;42.610;23.040;2022-07-23T01:50:01;93922.66;;;17.07;100.00
10480;BME280;12789;42.610;23.040;2022-07-23T01:52:31;93919.81;;;16.94;100.00
10480;BME280;12789;42.610;23.040;2022-07-23T01:54:58;93922.78;;;16.91;100.00
10480;BME280;12789;42.610;23.040;2022-07-23T01:57:37;93912.66;;;16.88;100.00
10480;BME280;12789;42.610;23.040;2022-07-23T02:00:06;93914.03;;;16.76;100.00
10480;BME280;12789;42.610;23.040;2022-07-23T02:02:33;93911.00;;;16.65;100.00
10480;BME280;12789;42.610;23.040;2022-07-23T02:05:02;93924.28;;;16.63;100.00
10480;BME280;12789;42.610;23.040;2022-07-23T02:07:31;93915.44;;;16.64;100.00
10480;BME280;12789;42.610;23.040;2022-07-23T02:10:04;93908.28;;;16.58;100.00
10480;BME280;12789;42.610;23.040;2022-07-23T02:12:36;93921.81;;;16.62;99.73
10480;BME280;12789;42.610;23.040;2022-07-23T02:15:12;93934.91;;;16.62;100.00
10480;BME280;12789;42.610;23.040;2022-07-23T02:17:39;93928.66;;;16.41;100.00
10480;BME280;12789;42.610;23.040;2022-07-23T02:20:09;93925.81;;;16.50;100.00
10480;BME280;12789;42.610;23.040;2022-07-23T02:22:37;93926.56;;;16.36;100.00
10480;BME280;12789;42.610;23.040;2022-07-23T02:25:07;93919.47;;;16.45;100.00
10480;BME280;12789;42.610;23.040;2022-07-23T02:27:36;93919.81;;;16.42;100.00
10480;BME280;12789;42.610;23.040;2022-07-23T02:30:04;93923.13;;;16.36;100.00
10480;BME280;12789;42.610;23.040;2022-07-23T02:32:32;93913.09;;;16.47;100.00
10480;BME280;12789;42.610;23.040;2022-07-23T02:34:59;93919.75;;;16.57;100.00
10480;BME280;12789;42.610;23.040;2022-07-23T02:37:26;93928.53;;;16.64;100.00
10480;BME280;12789;42.610;23.040;2022-07-23T02:39:54;93930.75;;;16.45;100.00
10480;BME280;12789;42.610;23.040;2022-07-23T02:42:21;93921.50;;;16.27;100.00
10480;BME280;12789;42.610;23.040;2022-07-23T02:44:53;93927.38;;;16.29;100.00
10480;BME280;12789;42.610;23.040;2022-07-23T02:47:22;93930.91;;;16.44;100.00
10480;BME280;12789;42.610;23.040;2022-07-23T02:49:51;93933.59;;;16.28;100.00
10480;BME280;12789;42.610;23.040;2022-07-23T02:52:19;93935.72;;;16.32;100.00
10480;BME280;12789;42.610;23.040;2022-07-23T02:54:46;93948.31;;;16.29;100.00
10480;BME280;12789;42.610;23.040;2022-07-23T02:57:13;93943.00;;;16.45;100.00
10480;BME280;12789;42.610;23.040;2022-07-23T02:59:40;93949.56;;;16.41;100.00
10480;BME280;12789;42.610;23.040;2022-07-23T03:02:09;93949.78;;;16.31;100.00
10480;BME280;12789;42.610;23.040;2022-07-23T03:04:36;93951.59;;;16.23;100.00
10480;BME280;12789;42.610;23.040;2022-07-23T03:07:09;93950.63;;;16.24;100.00
10480;BME280;12789;42.610;23.040;2022-07-23T03:09:36;93961.03;;;16.32;100.00
10480;BME280;12789;42.610;23.040;2022-07-23T03:12:06;93968.41;;;16.28;100.00
10480;BME280;12789;42.610;23.040;2022-07-23T03:14:34;93958.09;;;15.96;100.00
10480;BME280;12789;42.610;23.040;2022-07-23T03:17:01;93966.03;;;16.11;100.00
10480;BME280;12789;42.610;23.040;2022-07-23T03:19:30;93963.06;;;16.22;100.00
10480;BME280;12789;42.610;23.040;2022-07-23T03:21:57;93966.03;;;16.03;100.00
10480;BME280;12789;42.610;23.040;2022-07-23T03:24:24;93978.81;;;15.98;100.00
10480;BME280;12789;42.610;23.040;2022-07-23T03:27:11;93971.91;;;16.05;100.00
10480;BME280;12789;42.610;23.040;2022-07-23T03:29:38;93969.97;;;15.99;100.00
10480;BME280;12789;42.610;23.040;2022-07-23T03:32:05;93979.03;;;16.27;100.00
10480;BME280;12789;42.610;23.040;2022-07-23T03:34:35;93966.66;;;16.21;100.00
10480;BME280;12789;42.610;23.040;2022-07-23T03:37:12;93970.94;;;16.06;100.00
10480;BME280;12789;42.610;23.040;2022-07-23T03:39:43;93975.22;;;15.99;100.00
10480;BME280;12789;42.610;23.040;2022-07-23T03:42:11;93981.44;;;15.98;100.00
10480;BME280;12789;42.610;23.040;2022-07-23T03:44:40;93958.91;;;15.89;100.00
10480;BME280;12789;42.610;23.040;2022-07-23T03:47:11;93967.06;;;15.94;100.00
10480;BME280;12789;42.610;23.040;2022-07-23T03:49:47;93990.16;;;16.29;100.00
10480;BME280;12789;42.610;23.040;2022-07-23T03:52:15;93962.06;;;16.23;100.00
10480;BME280;12789;42.610;23.040;2022-07-23T03:54:43;93981.16;;;16.39;100.00
10480;BME280;12789;42.610;23.040;2022-07-23T03:57:10;93975.19;;;16.15;100.00
10480;BME280;12789;42.610;23.040;2022-07-23T03:59:38;93975.75;;;16.41;100.00
10480;BME280;12789;42.610;23.040;2022-07-23T04:02:05;93974.94;;;16.32;100.00
10480;BME280;12789;42.610;23.040;2022-07-23T04:04:33;93963.09;;;16.52;100.00
10480;BME280;12789;42.610;23.040;2022-07-23T04:07:02;93974.69;;;16.57;100.00
10480;BME280;12789;42.610;23.040;2022-07-23T04:09:29;93969.47;;;16.57;100.00
10480;BME280;12789;42.610;23.040;2022-07-23T04:11:57;93960.97;;;16.48;100.00
10480;BME280;12789;42.610;23.040;2022-07-23T04:14:24;93984.03;;;16.52;100.00
10480;BME280;12789;42.610;23.040;2022-07-23T04:16:51;93977.66;;;16.54;100.00
10480;BME280;12789;42.610;23.040;2022-07-23T04:19:18;93984.06;;;16.74;100.00
10480;BME280;12789;42.610;23.040;2022-07-23T04:21:45;93985.06;;;16.73;100.00
10480;BME280;12789;42.610;23.040;2022-07-23T04:24:13;93987.69;;;16.73;100.00
10480;BME280;12789;42.610;23.040;2022-07-23T04:26:40;93986.06;;;16.72;100.00
10480;BME280;12789;42.610;23.040;2022-07-23T04:29:07;93987.53;;;16.75;100.00
10480;BME280;12789;42.610;23.040;2022-07-23T04:31:34;93991.78;;;16.76;100.00
10480;BME280;12789;42.610;23.040;2022-07-23T04:34:01;93990.28;;;16.73;100.00
10480;BME280;12789;42.610;23.040;2022-07-23T04:36:28;93989.06;;;16.61;100.00
10480;BME280;12789;42.610;23.040;2022-07-23T04:38:56;93991.00;;;16.67;100.00
10480;BME280;12789;42.610;23.040;2022-07-23T04:41:25;93988.38;;;16.67;100.00
10480;BME280;12789;42.610;23.040;2022-07-23T04:43:51;93992.13;;;16.73;100.00
10480;BME280;12789;42.610;23.040;2022-07-23T04:46:18;93991.88;;;16.82;100.00
10480;BME280;12789;42.610;23.040;2022-07-23T04:48:45;93991.53;;;16.85;100.00
10480;BME280;12789;42.610;23.040;2022-07-23T04:51:13;93990.88;;;16.91;100.00
10480;BME280;12789;42.610;23.040;2022-07-23T04:53:46;93999.38;;;16.93;100.00
10480;BME280;12789;42.610;23.040;2022-07-23T04:56:51;93990.16;;;16.97;100.00
10480;BME280;12789;42.610;23.040;2022-07-23T05:00:06;94001.44;;;17.20;99.20
10480;BME280;12789;42.610;23.040;2022-07-23T05:03:07;93997.78;;;17.37;99.19
10480;BME280;12789;42.610;23.040;2022-07-23T05:38:50;94019.84;;;18.60;87.34
10480;BME280;12789;42.610;23.040;2022-07-23T05:41:21;94020.84;;;18.59;86.44
10480;BME280;12789;42.610;23.040;2022-07-23T05:43:55;94008.13;;;18.77;83.81
10480;BME280;12789;42.610;23.040;2022-07-23T05:46:24;94006.31;;;18.92;82.21
10480;BME280;12789;42.610;23.040;2022-07-23T05:48:51;94021.22;;;19.06;84.16
10480;BME280;12789;42.610;23.040;2022-07-23T05:51:20;94012.44;;;18.99;82.30
10480;BME280;12789;42.610;23.040;2022-07-23T06:04:42;94009.00;;;19.75;78.58
10480;BME280;12789;42.610;23.040;2022-07-23T06:07:31;94012.34;;;19.90;76.56
10480;BME280;12789;42.610;23.040;2022-07-23T06:17:58;93998.88;;;20.27;72.53
10480;BME280;12789;42.610;23.040;2022-07-23T06:20:31;94016.88;;;20.58;71.31
10480;BME280;12789;42.610;23.040;2022-07-23T06:22:59;93992.88;;;20.74;69.89
10480;BME280;12789;42.610;23.040;2022-07-23T06:33:25;93992.56;;;21.82;64.51
10480;BME280;12789;42.610;23.040;2022-07-23T06:36:49;93965.38;;;22.01;63.70
10480;BME280;12789;42.610;23.040;2022-07-23T06:39:16;93982.41;;;22.44;63.15
10480;BME280;12789;42.610;23.040;2022-07-23T06:41:43;93972.34;;;22.72;63.28
10480;BME280;12789;42.610;23.040;2022-07-23T06:44:11;93969.84;;;22.89;62.62
10480;BME280;12789;42.610;23.040;2022-07-23T06:46:39;93977.28;;;23.05;61.44
10480;BME280;12789;42.610;23.040;2022-07-23T06:49:07;93963.97;;;23.31;59.41
10480;BME280;12789;42.610;23.040;2022-07-23T06:51:37;93960.78;;;23.47;58.44
10480;BME280;12789;42.610;23.040;2022-07-23T06:54:06;93960.59;;;23.80;57.49
10480;BME280;12789;42.610;23.040;2022-07-23T06:56:33;93971.84;;;24.00;56.27
10480;BME280;12789;42.610;23.040;2022-07-23T06:59:00;93961.16;;;24.55;58.15
10480;BME280;12789;42.610;23.040;2022-07-23T07:01:28;93954.75;;;24.98;57.15
10480;BME280;12789;42.610;23.040;2022-07-23T07:03:56;93942.75;;;24.78;55.57
10480;BME280;12789;42.610;23.040;2022-07-23T07:06:24;93946.69;;;25.05;56.34
10480;BME280;12789;42.610;23.040;2022-07-23T07:08:51;93952.22;;;25.21;52.19
10480;BME280;12789;42.610;23.040;2022-07-23T07:11:20;93938.56;;;25.36;52.59
10480;BME280;12789;42.610;23.040;2022-07-23T07:14:21;93940.03;;;25.73;50.30
10480;BME280;12789;42.610;23.040;2022-07-23T07:17:39;93927.53;;;26.25;52.59
10480;BME280;12789;42.610;23.040;2022-07-23T07:21:17;93928.94;;;26.39;48.43
10480;BME280;12789;42.610;23.040;2022-07-23T07:24:46;93940.81;;;26.02;50.91
10480;BME280;12789;42.610;23.040;2022-07-23T07:27:50;93925.09;;;26.12;50.53
10480;BME280;12789;42.610;23.040;2022-07-23T07:30:18;93929.19;;;26.49;48.56
10480;BME280;12789;42.610;23.040;2022-07-23T07:32:45;93922.44;;;27.49;50.47
10480;BME280;12789;42.610;23.040;2022-07-23T07:35:32;93918.13;;;28.25;49.04
10480;BME280;12789;42.610;23.040;2022-07-23T07:39:00;93904.09;;;28.46;45.38
10480;BME280;12789;42.610;23.040;2022-07-23T07:42:06;93895.38;;;27.40;45.44
10480;BME280;12789;42.610;23.040;2022-07-23T07:45:17;93899.94;;;28.93;45.06
10480;BME280;12789;42.610;23.040;2022-07-23T07:48:30;93897.47;;;29.08;44.12
10480;BME280;12789;42.610;23.040;2022-07-23T07:54:45;93910.53;;;29.09;43.05
10480;BME280;12789;42.610;23.040;2022-07-23T07:57:42;93897.94;;;29.05;45.64
10480;BME280;12789;42.610;23.040;2022-07-23T08:00:26;93898.84;;;29.89;42.88
10480;BME280;12789;42.610;23.040;2022-07-23T08:02:54;93885.22;;;30.59;39.69
10480;BME280;12789;42.610;23.040;2022-07-23T08:05:31;93887.84;;;30.54;40.73
10480;BME280;12789;42.610;23.040;2022-07-23T08:16:02;93884.84;;;30.45;41.89
10480;BME280;12789;42.610;23.040;2022-07-23T08:19:10;93889.13;;;30.92;39.46
10480;BME280;12789;42.610;23.040;2022-07-23T08:22:53;93887.19;;;30.37;41.23
10480;BME280;12789;42.610;23.040;2022-07-23T08:26:48;93876.63;;;31.08;41.26
10480;BME280;12789;42.610;23.040;2022-07-23T08:33:03;93874.16;;;31.98;40.64
10480;BME280;12789;42.610;23.040;2022-07-23T08:36:04;93875.69;;;32.78;38.08
10480;BME280;12789;42.610;23.040;2022-07-23T08:40:39;93867.44;;;32.35;37.79
10480;BME280;12789;42.610;23.040;2022-07-23T08:46:05;93863.38;;;33.84;34.92
10480;BME280;12789;42.610;23.040;2022-07-23T08:48:35;93852.41;;;35.18;36.06
10480;BME280;12789;42.610;23.040;2022-07-23T08:51:03;93862.53;;;34.27;39.00
10480;BME280;12789;42.610;23.040;2022-07-23T08:53:33;93859.13;;;32.17;38.10
10480;BME280;12789;42.610;23.040;2022-07-23T08:56:05;93850.00;;;32.38;37.71
10480;BME280;12789;42.610;23.040;2022-07-23T08:58:34;93858.41;;;33.68;35.37
10480;BME280;12789;42.610;23.040;2022-07-23T09:01:02;93853.19;;;33.76;36.46
10480;BME280;12789;42.610;23.040;2022-07-23T09:03:31;93841.44;;;34.62;33.69
10480;BME280;12789;42.610;23.040;2022-07-23T09:06:00;93859.56;;;34.57;34.13
10480;BME280;12789;42.610;23.040;2022-07-23T09:08:35;93838.19;;;34.89;33.21
10480;BME280;12789;42.610;23.040;2022-07-23T09:11:04;93848.06;;;34.75;32.89
10480;BME280;12789;42.610;23.040;2022-07-23T09:13:34;93847.59;;;34.06;30.46
10480;BME280;12789;42.610;23.040;2022-07-23T09:16:06;93845.66;;;35.62;30.58
10480;BME280;12789;42.610;23.040;2022-07-23T09:18:36;93849.94;;;36.64;30.80
10480;BME280;12789;42.610;23.040;2022-07-23T09:21:24;93847.16;;;34.27;31.08
10480;BME280;12789;42.610;23.040;2022-07-23T09:23:56;93840.31;;;33.73;32.85
10480;BME280;12789;42.610;23.040;2022-07-23T09:26:35;93842.66;;;33.85;31.41
10480;BME280;12789;42.610;23.040;2022-07-23T09:29:05;93851.06;;;34.97;31.56
10480;BME280;12789;42.610;23.040;2022-07-23T09:31:43;93834.13;;;36.84;33.21
10480;BME280;12789;42.610;23.040;2022-07-23T09:34:14;93828.09;;;38.47;30.28
10480;BME280;12789;42.610;23.040;2022-07-23T09:36:45;93826.16;;;37.06;29.34
10480;BME280;12789;42.610;23.040;2022-07-23T09:39:15;93821.78;;;37.59;28.34
10480;BME280;12789;42.610;23.040;2022-07-23T09:41:45;93818.84;;;36.93;27.05
10480;BME280;12789;42.610;23.040;2022-07-23T09:44:14;93808.78;;;36.08;26.78
10480;BME280;12789;42.610;23.040;2022-07-23T09:46:50;93809.56;;;36.08;27.80
10480;BME280;12789;42.610;23.040;2022-07-23T09:49:30;93798.50;;;36.55;27.11
10480;BME280;12789;42.610;23.040;2022-07-23T09:52:03;93809.91;;;36.79;26.98
10480;BME280;12789;42.610;23.040;2022-07-23T09:54:33;93814.00;;;37.79;27.34
10480;BME280;12789;42.610;23.040;2022-07-23T09:57:04;93810.84;;;38.43;26.47
10480;BME280;12789;42.610;23.040;2022-07-23T09:59:33;93807.31;;;39.68;26.69
10480;BME280;12789;42.610;23.040;2022-07-23T10:02:01;93793.53;;;38.61;24.54
10480;BME280;12789;42.610;23.040;2022-07-23T10:04:31;93804.09;;;36.72;26.75
10480;BME280;12789;42.610;23.040;2022-07-23T10:07:22;93799.09;;;36.52;26.77
10480;BME280;12789;42.610;23.040;2022-07-23T10:09:55;93797.19;;;34.92;27.89
10480;BME280;12789;42.610;23.040;2022-07-23T10:12:24;93793.00;;;36.60;26.78
10480;BME280;12789;42.610;23.040;2022-07-23T10:15:18;93787.56;;;35.28;26.00
10480;BME280;12789;42.610;23.040;2022-07-23T10:17:46;93784.59;;;36.16;25.05
10480;BME280;12789;42.610;23.040;2022-07-23T10:20:56;93786.66;;;34.72;26.30
10480;BME280;12789;42.610;23.040;2022-07-23T10:31:46;93783.88;;;38.38;24.67
10480;BME280;12789;42.610;23.040;2022-07-23T10:34:59;93770.25;;;39.72;24.42
10480;BME280;12789;42.610;23.040;2022-07-23T10:38:32;93761.41;;;37.23;23.41
10480;BME280;12789;42.610;23.040;2022-07-23T10:42:10;93767.00;;;38.19;22.54
10480;BME280;12789;42.610;23.040;2022-07-23T10:44:39;93758.72;;;38.16;20.83
10480;BME280;12789;42.610;23.040;2022-07-23T10:47:10;93760.69;;;36.55;24.72
10480;BME280;12789;42.610;23.040;2022-07-23T10:49:45;93757.34;;;37.83;21.44
10480;BME280;12789;42.610;23.040;2022-07-23T10:52:23;93750.53;;;37.15;22.11
10480;BME280;12789;42.610;23.040;2022-07-23T10:54:53;93752.91;;;34.79;22.37
10480;BME280;12789;42.610;23.040;2022-07-23T10:57:21;93752.06;;;35.58;23.05
10480;BME280;12789;42.610;23.040;2022-07-23T11:00:21;93746.28;;;34.90;22.51
10480;BME280;12789;42.610;23.040;2022-07-23T11:10:41;93712.88;;;38.67;20.56
10480;BME280;12789;42.610;23.040;2022-07-23T11:17:13;93725.56;;;37.31;20.47
10480;BME280;12789;42.610;23.040;2022-07-23T11:26:52;93702.97;;;37.93;19.36
10480;BME280;12789;42.610;23.040;2022-07-23T11:29:42;93699.47;;;37.92;18.09
10480;BME280;12789;42.610;23.040;2022-07-23T11:32:51;93694.22;;;39.89;18.71
10480;BME280;12789;42.610;23.040;2022-07-23T11:35:21;93691.75;;;40.21;17.26
10480;BME280;12789;42.610;23.040;2022-07-23T11:37:53;93695.63;;;40.03;19.34
10480;BME280;12789;42.610;23.040;2022-07-23T11:43:26;93683.59;;;38.77;17.82
10480;BME280;12789;42.610;23.040;2022-07-23T11:46:12;93689.41;;;41.15;19.11
10480;BME280;12789;42.610;23.040;2022-07-23T11:49:31;93682.03;;;41.65;19.16
10480;BME280;12789;42.610;23.040;2022-07-23T11:53:12;93679.19;;;41.53;19.17
10480;BME280;12789;42.610;23.040;2022-07-23T11:55:40;93675.03;;;42.08;18.24
10480;BME280;12789;42.610;23.040;2022-07-23T12:01:58;93665.00;;;39.60;17.76
10480;BME280;12789;42.610;23.040;2022-07-23T12:04:45;93682.25;;;38.19;18.67
10480;BME280;12789;42.610;23.040;2022-07-23T12:11:19;93667.19;;;39.92;17.20
10480;BME280;12789;42.610;23.040;2022-07-23T12:17:47;93663.13;;;41.39;16.65
10480;BME280;12789;42.610;23.040;2022-07-23T12:20:24;93665.28;;;42.19;16.18
10480;BME280;12789;42.610;23.040;2022-07-23T12:23:10;93655.50;;;40.00;16.78
10480;BME280;12789;42.610;23.040;2022-07-23T12:26:10;93646.34;;;39.16;16.68
10480;BME280;12789;42.610;23.040;2022-07-23T12:28:52;93646.97;;;37.36;17.90
10480;BME280;12789;42.610;23.040;2022-07-23T12:31:25;93638.84;;;39.30;16.17
10480;BME280;12789;42.610;23.040;2022-07-23T12:33:55;93628.69;;;38.16;15.45
10480;BME280;12789;42.610;23.040;2022-07-23T12:36:37;93634.59;;;42.10;15.47
10480;BME280;12789;42.610;23.040;2022-07-23T12:39:39;93635.91;;;41.92;15.82
10480;BME280;12789;42.610;23.040;2022-07-23T12:45:51;93634.97;;;41.15;15.31
10480;BME280;12789;42.610;23.040;2022-07-23T12:48:30;93625.25;;;42.55;14.66
10480;BME280;12789;42.610;23.040;2022-07-23T12:51:27;93613.81;;;41.73;14.43
10480;BME280;12789;42.610;23.040;2022-07-23T12:54:04;93609.88;;;43.38;14.26
10480;BME280;12789;42.610;23.040;2022-07-23T12:56:34;93604.19;;;43.43;14.54
10480;BME280;12789;42.610;23.040;2022-07-23T12:59:24;93602.97;;;43.29;15.41
10480;BME280;12789;42.610;23.040;2022-07-23T13:02:42;93611.09;;;42.77;16.40
10480;BME280;12789;42.610;23.040;2022-07-23T13:05:13;93601.38;;;40.90;15.59
10480;BME280;12789;42.610;23.040;2022-07-23T13:08:06;93610.28;;;40.50;15.61
10480;BME280;12789;42.610;23.040;2022-07-23T13:10:34;93605.34;;;40.73;15.74
10480;BME280;12789;42.610;23.040;2022-07-23T13:13:08;93614.88;;;41.81;15.97
10480;BME280;12789;42.610;23.040;2022-07-23T13:15:35;93619.19;;;41.82;17.32
10480;BME280;12789;42.610;23.040;2022-07-23T13:18:02;93624.50;;;42.11;18.47
10480;BME280;12789;42.610;23.040;2022-07-23T13:20:33;93618.75;;;41.59;17.37
10480;BME280;12789;42.610;23.040;2022-07-23T13:23:02;93612.50;;;42.59;16.24
10480;BME280;12789;42.610;23.040;2022-07-23T13:25:47;93608.75;;;42.52;15.07
10480;BME280;12789;42.610;23.040;2022-07-23T13:28:24;93594.41;;;43.42;15.49
10480;BME280;12789;42.610;23.040;2022-07-23T13:33:57;93595.59;;;43.17;15.81
10480;BME280;12789;42.610;23.040;2022-07-23T13:34:18;93587.00;;;41.31;16.21
10480;BME280;12789;42.610;23.040;2022-07-23T13:37:15;93591.28;;;37.87;17.63
10480;BME280;12789;42.610;23.040;2022-07-23T13:40:13;93594.34;;;41.95;16.32
10480;BME280;12789;42.610;23.040;2022-07-23T13:42:45;93590.34;;;42.85;15.99
10480;BME280;12789;42.610;23.040;2022-07-23T13:45:46;93576.72;;;42.49;15.67
10480;BME280;12789;42.610;23.040;2022-07-23T13:48:15;93577.03;;;44.05;15.46
10480;BME280;12789;42.610;23.040;2022-07-23T13:51:08;93581.84;;;43.14;16.11
10480;BME280;12789;42.610;23.040;2022-07-23T13:54:30;93600.34;;;40.83;17.54
10480;BME280;12789;42.610;23.040;2022-07-23T14:01:39;93589.56;;;41.07;18.00
10480;BME280;12789;42.610;23.040;2022-07-23T14:05:31;93592.09;;;41.12;18.99
10480;BME280;12789;42.610;23.040;2022-07-23T14:07:56;93583.03;;;41.20;19.10
10480;BME280;12789;42.610;23.040;2022-07-23T14:10:53;93575.81;;;41.65;18.20
10480;BME280;12789;42.610;23.040;2022-07-23T14:14:42;93570.34;;;42.57;17.43
10480;BME280;12789;42.610;23.040;2022-07-23T14:18:06;93572.28;;;42.56;16.98
10480;BME280;12789;42.610;23.040;2022-07-23T14:25:05;93582.94;;;41.69;16.33
10480;BME280;12789;42.610;23.040;2022-07-23T14:35:12;93557.53;;;44.22;15.20
10480;BME280;12789;42.610;23.040;2022-07-23T14:38:54;93556.34;;;43.61;15.68
10480;BME280;12789;42.610;23.040;2022-07-23T14:50:29;93571.31;;;44.56;16.97
10480;BME280;12789;42.610;23.040;2022-07-23T14:57:34;93557.31;;;45.30;15.38
10480;BME280;12789;42.610;23.040;2022-07-23T15:01:11;93550.50;;;43.35;15.89
10480;BME280;12789;42.610;23.040;2022-07-23T15:12:00;93548.06;;;42.67;17.27
10480;BME280;12789;42.610;23.040;2022-07-23T15:46:16;93530.44;;;44.32;18.74
10480;BME280;12789;42.610;23.040;2022-07-23T16:02:06;93531.63;;;44.81;17.89
10480;BME280;12789;42.610;23.040;2022-07-23T16:05:01;93534.59;;;44.42;20.32
10480;BME280;12789;42.610;23.040;2022-07-23T16:11:19;93538.78;;;43.93;19.72
10480;BME280;12789;42.610;23.040;2022-07-23T16:14:36;93541.34;;;42.88;20.37
10480;BME280;12789;42.610;23.040;2022-07-23T16:17:31;93543.53;;;42.35;19.97
10480;BME280;12789;42.610;23.040;2022-07-23T16:20:12;93539.28;;;42.85;19.22
10480;BME280;12789;42.610;23.040;2022-07-23T16:22:42;93544.31;;;42.36;20.26
10480;BME280;12789;42.610;23.040;2022-07-23T16:25:13;93539.09;;;42.54;20.12
10480;BME280;12789;42.610;23.040;2022-07-23T16:27:41;93538.47;;;41.77;20.45
10480;BME280;12789;42.610;23.040;2022-07-23T16:30:41;93537.69;;;41.89;20.70
10480;BME280;12789;42.610;23.040;2022-07-23T16:33:23;93538.66;;;42.05;21.31
10480;BME280;12789;42.610;23.040;2022-07-23T16:36:02;93554.88;;;40.83;22.40
10480;BME280;12789;42.610;23.040;2022-07-23T16:38:32;93538.81;;;41.88;20.85
10480;BME280;12789;42.610;23.040;2022-07-23T16:41:04;93542.63;;;41.63;20.15
10480;BME280;12789;42.610;23.040;2022-07-23T16:43:34;93540.78;;;41.55;20.72
10480;BME280;12789;42.610;23.040;2022-07-23T16:46:39;93545.50;;;40.52;21.76
10480;BME280;12789;42.610;23.040;2022-07-23T16:49:11;93549.25;;;40.80;22.28
10480;BME280;12789;42.610;23.040;2022-07-23T16:51:38;93548.69;;;41.15;22.78
10480;BME280;12789;42.610;23.040;2022-07-23T16:54:05;93548.28;;;41.05;23.52
10480;BME280;12789;42.610;23.040;2022-07-23T16:56:32;93554.56;;;40.85;23.91
10480;BME280;12789;42.610;23.040;2022-07-23T17:02:06;93544.03;;;39.88;23.23
10480;BME280;12789;42.610;23.040;2022-07-23T17:04:35;93553.19;;;39.75;23.83
10480;BME280;12789;42.610;23.040;2022-07-23T17:10:46;93560.28;;;39.34;25.26
10480;BME280;12789;42.610;23.040;2022-07-23T17:13:31;93560.63;;;38.82;26.51
10480;BME280;12789;42.610;23.040;2022-07-23T17:24:00;93564.06;;;36.52;29.57
10480;BME280;12789;42.610;23.040;2022-07-23T17:27:10;93580.25;;;35.26;30.77
10480;BME280;12789;42.610;23.040;2022-07-23T17:40:56;93582.19;;;34.52;32.32
10480;BME280;12789;42.610;23.040;2022-07-23T17:43:23;93582.59;;;33.23;34.27
10480;BME280;12789;42.610;23.040;2022-07-23T17:45:56;93585.59;;;33.22;34.61